createdAt,value
2019-05-20T00:00:16.570Z,17.80
2019-05-20T00:02:46.644Z,19.60
2019-05-20T00:05:15.563Z,16.10
2019-05-20T00:07:47.365Z,18.07
2019-05-20T00:10:16.914Z,17.67
2019-05-20T00:12:46.935Z,18.13
2019-05-20T00:15:18.875Z,17.27
2019-05-20T00:17:47.827Z,18.13
2019-05-20T00:20:16.768Z,17.70
2019-05-20T00:22:45.768Z,20.23
2019-05-20T00:25:14.768Z,21.27
2019-05-20T00:27:43.681Z,18.87
2019-05-20T00:30:12.813Z,19.43
2019-05-20T00:32:42.576Z,19.20
2019-05-20T00:35:14.388Z,22.70
2019-05-20T00:37:46.856Z,19.23
2019-05-20T00:40:15.848Z,21.13
2019-05-20T00:42:44.816Z,22.43
2019-05-20T00:45:13.828Z,20.13
2019-05-20T00:47:43.833Z,25.23
2019-05-20T00:50:13.187Z,20.73
2019-05-20T00:52:42.332Z,20.97
2019-05-20T00:55:18.546Z,19.10
2019-05-20T00:57:47.490Z,20.90
2019-05-20T01:00:16.575Z,23.53
2019-05-20T01:02:56.501Z,24.63
2019-05-20T01:05:16.373Z,26.30
2019-05-20T01:07:45.340Z,20.93
2019-05-20T01:10:14.999Z,23.97
2019-05-20T01:12:43.935Z,23.30
2019-05-20T01:15:13.942Z,23.40
2019-05-20T01:17:42.911Z,23.57
2019-05-20T01:20:12.163Z,23.33
2019-05-20T01:22:44.123Z,22.60
2019-05-20T01:25:13.203Z,23.97
2019-05-20T01:27:42.268Z,23.63
2019-05-20T01:30:11.660Z,25.53
2019-05-20T01:32:43.777Z,24.63
2019-05-20T01:35:14.298Z,21.07
2019-05-20T01:37:44.353Z,26.97
2019-05-20T01:40:13.473Z,25.63
2019-05-20T01:42:42.500Z,28.23
2019-05-20T01:45:11.480Z,24.93
2019-05-20T01:47:40.414Z,26.17
2019-05-20T01:50:09.576Z,27.87
2019-05-20T01:52:41.351Z,25.83
2019-05-20T01:55:10.391Z,25.60
2019-05-20T01:57:39.384Z,25.23
2019-05-20T02:00:08.471Z,28.90
2019-05-20T02:02:41.028Z,27.77
2019-05-20T02:05:10.097Z,27.63
2019-05-20T02:07:43.449Z,27.07
2019-05-20T02:10:13.019Z,26.97
2019-05-20T02:12:42.149Z,25.87
2019-05-20T02:15:18.408Z,26.40
2019-05-20T02:17:48.373Z,27.37
2019-05-20T02:20:17.339Z,25.53
2019-05-20T02:22:46.359Z,26.33
2019-05-20T02:25:15.376Z,26.87
2019-05-20T02:27:44.368Z,25.40
2019-05-20T02:30:13.506Z,25.03
2019-05-20T02:32:42.421Z,27.27
2019-05-20T02:35:11.565Z,24.50
2019-05-20T02:37:40.550Z,27.97
2019-05-20T02:40:09.662Z,25.83
2019-05-20T02:42:38.681Z,29.37
2019-05-20T02:45:07.955Z,28.67
2019-05-20T02:47:36.985Z,28.97
2019-05-20T02:50:06.100Z,25.87
2019-05-20T02:52:35.156Z,33.90
2019-05-20T02:55:04.321Z,26.60
2019-05-20T02:57:33.243Z,29.37
2019-05-20T03:00:02.345Z,31.07
2019-05-20T03:02:31.247Z,29.57
2019-05-20T03:05:00.169Z,28.67
2019-05-20T03:07:31.684Z,32.23
2019-05-20T03:10:04.081Z,30.80
2019-05-20T03:12:33.014Z,29.47
2019-05-20T03:15:02.018Z,32.20
2019-05-20T03:17:31.004Z,31.20
2019-05-20T03:20:01.116Z,28.73
2019-05-20T03:22:30.023Z,27.37
2019-05-20T03:24:59.017Z,28.60
2019-05-20T03:27:28.058Z,26.90
2019-05-20T03:29:57.311Z,26.17
2019-05-20T03:32:26.229Z,24.13
2019-05-20T03:35:00.006Z,27.20
2019-05-20T03:37:25.851Z,28.40
2019-05-20T03:39:55.990Z,27.37
2019-05-20T03:42:24.877Z,26.77
2019-05-20T03:44:55.511Z,23.93
2019-05-20T03:47:24.537Z,20.77
2019-05-20T03:49:53.578Z,26.00
2019-05-20T03:52:22.576Z,24.03
2019-05-20T03:54:51.998Z,21.13
2019-05-20T03:57:20.932Z,21.90
2019-05-20T03:59:50.092Z,20.93
2019-05-20T04:02:19.113Z,22.77
2019-05-20T04:05:01.597Z,23.97
2019-05-20T04:07:18.725Z,21.87
2019-05-20T04:09:47.740Z,22.40
2019-05-20T04:12:16.628Z,18.67
2019-05-20T04:14:45.557Z,18.80
2019-05-20T04:17:14.497Z,18.47
2019-05-20T04:19:45.268Z,20.07
2019-05-20T04:22:15.294Z,17.57
2019-05-20T04:24:44.431Z,21.00
2019-05-20T04:27:13.303Z,19.73
2019-05-20T04:29:42.648Z,15.87
2019-05-20T04:32:11.581Z,20.00
2019-05-20T04:34:40.558Z,18.13
2019-05-20T04:37:09.541Z,17.47
2019-05-20T04:39:38.447Z,18.80
2019-05-20T04:42:07.427Z,15.40
2019-05-20T04:44:36.560Z,14.27
2019-05-20T04:47:05.488Z,14.37
2019-05-20T04:49:34.472Z,13.97
2019-05-20T04:52:03.549Z,14.80
2019-05-20T04:54:32.589Z,15.30
2019-05-20T04:57:04.121Z,15.67
2019-05-20T04:59:33.092Z,17.67
2019-05-20T05:02:02.150Z,15.73
2019-05-20T05:04:31.048Z,17.17
2019-05-20T05:07:00.093Z,18.73
2019-05-20T05:09:29.012Z,17.63
2019-05-20T05:11:57.920Z,19.97
2019-05-20T05:14:26.979Z,20.07
2019-05-20T05:16:56.161Z,18.83
2019-05-20T05:19:25.214Z,18.57
2019-05-20T05:21:54.304Z,19.63
2019-05-20T05:24:23.462Z,20.13
2019-05-20T05:26:54.800Z,20.27
2019-05-20T05:29:24.784Z,54.43
2019-05-20T05:31:53.690Z,41.30
2019-05-20T05:34:28.874Z,20.40
2019-05-20T05:37:04.042Z,18.87
2019-05-20T05:39:33.060Z,18.17
2019-05-20T05:42:02.027Z,24.30
2019-05-20T05:44:30.909Z,18.67
2019-05-20T05:46:59.912Z,20.53
2019-05-20T05:49:28.831Z,19.80
2019-05-20T05:51:57.715Z,21.80
2019-05-20T05:54:29.270Z,21.37
2019-05-20T05:56:58.168Z,20.30
2019-05-20T05:59:27.061Z,19.37
2019-05-20T06:01:57.133Z,21.63
2019-05-20T06:04:26.068Z,21.27
2019-05-20T06:06:55.037Z,21.20
2019-05-20T06:09:23.978Z,20.43
2019-05-20T06:11:54.303Z,21.80
2019-05-20T06:14:23.265Z,26.17
2019-05-20T06:16:52.325Z,21.83
2019-05-20T06:19:21.413Z,21.83
2019-05-20T06:21:50.482Z,20.90
2019-05-20T06:24:22.257Z,25.73
2019-05-20T06:26:52.103Z,23.80
2019-05-20T06:29:21.127Z,22.27
2019-05-20T06:31:50.117Z,24.27
2019-05-20T06:34:19.173Z,21.67
2019-05-20T06:36:51.273Z,21.07
2019-05-20T06:39:20.420Z,23.63
2019-05-20T06:41:56.167Z,20.47
2019-05-20T06:44:26.616Z,26.30
2019-05-20T06:46:55.607Z,19.97
2019-05-20T06:49:24.545Z,20.07
2019-05-20T06:51:53.615Z,23.13
2019-05-20T06:54:22.587Z,22.50
2019-05-20T06:56:56.672Z,22.07
2019-05-20T06:59:25.879Z,21.23
2019-05-20T07:01:55.956Z,21.93
2019-05-20T07:04:24.828Z,23.47
2019-05-20T07:06:53.909Z,21.77
2019-05-20T07:09:22.994Z,24.50
2019-05-20T07:11:53.433Z,19.90
2019-05-20T07:14:22.342Z,19.67
2019-05-20T07:16:51.279Z,22.70
2019-05-20T07:19:20.234Z,20.60
2019-05-20T07:21:49.311Z,21.73
2019-05-20T07:24:18.244Z,21.67
2019-05-20T07:26:48.252Z,18.33
2019-05-20T07:29:18.471Z,19.37
2019-05-20T07:31:47.529Z,20.93
2019-05-20T07:34:16.642Z,20.90
2019-05-20T07:37:01.471Z,24.83
2019-05-20T07:39:17.560Z,22.13
2019-05-20T07:41:56.021Z,26.93
2019-05-20T07:44:25.346Z,24.50
2019-05-20T07:46:54.721Z,26.60
2019-05-20T07:49:23.985Z,27.93
2019-05-20T07:51:53.154Z,30.97
2019-05-20T07:54:22.976Z,27.23
2019-05-20T07:56:53.139Z,31.27
2019-05-20T07:59:30.750Z,37.13
2019-05-20T08:01:57.199Z,33.20
2019-05-20T08:04:26.129Z,33.40
2019-05-20T08:06:55.670Z,34.07
2019-05-20T08:09:24.713Z,34.30
2019-05-20T08:11:53.636Z,32.40
2019-05-20T08:14:25.715Z,34.40
2019-05-20T08:16:54.683Z,31.93
2019-05-20T08:19:23.636Z,35.97
2019-05-20T08:21:55.660Z,34.87
2019-05-20T08:24:24.625Z,33.30
2019-05-20T08:26:56.893Z,34.20
2019-05-20T08:29:25.841Z,34.30
2019-05-20T08:31:55.764Z,36.17
2019-05-20T08:34:24.665Z,34.93
2019-05-20T08:36:53.952Z,35.43
2019-05-20T08:39:31.524Z,36.93
2019-05-20T08:42:02.478Z,36.50
2019-05-20T08:44:31.077Z,34.50
2019-05-20T08:47:00.211Z,34.60
2019-05-20T08:49:29.114Z,35.13
2019-05-20T08:51:58.016Z,36.87
2019-05-20T08:54:28.046Z,34.03
2019-05-20T08:56:57.125Z,31.50
2019-05-20T08:59:26.058Z,38.03
2019-05-20T09:01:58.419Z,32.77
2019-05-20T09:04:27.636Z,34.53
2019-05-20T09:06:56.610Z,30.47
2019-05-20T09:09:25.657Z,31.87
2019-05-20T09:11:54.712Z,33.00
2019-05-20T09:14:26.947Z,33.23
2019-05-20T09:16:59.535Z,29.67
2019-05-20T09:19:28.639Z,30.67
2019-05-20T09:21:57.589Z,31.50
2019-05-20T09:24:28.996Z,31.77
2019-05-20T09:26:57.957Z,31.67
2019-05-20T09:29:27.136Z,34.40
2019-05-20T09:31:56.597Z,31.43
2019-05-20T09:34:26.640Z,32.93
2019-05-20T09:36:55.580Z,31.07
2019-05-20T09:39:24.611Z,34.83
2019-05-20T09:41:53.618Z,32.73
2019-05-20T09:44:22.664Z,30.07
2019-05-20T09:46:53.980Z,35.87
2019-05-20T09:49:26.250Z,32.80
2019-05-20T09:51:55.241Z,31.70
2019-05-20T09:54:24.239Z,34.10
2019-05-20T09:56:55.284Z,34.70
2019-05-20T09:59:42.200Z,31.80
2019-05-20T10:01:57.775Z,31.57
2019-05-20T10:04:30.171Z,35.07
2019-05-20T10:06:59.074Z,35.47
2019-05-20T10:09:28.037Z,31.17
2019-05-20T10:12:02.104Z,33.37
2019-05-20T10:14:30.979Z,28.73
2019-05-20T10:16:59.920Z,34.10
2019-05-20T10:19:29.111Z,30.93
2019-05-20T10:21:58.138Z,33.60
2019-05-20T10:24:27.589Z,29.77
2019-05-20T10:26:56.531Z,32.23
2019-05-20T10:29:25.579Z,32.50
2019-05-20T10:31:54.540Z,30.73
2019-05-20T10:34:23.475Z,32.37
2019-05-20T10:36:53.432Z,34.93
2019-05-20T10:39:25.279Z,41.87
2019-05-20T10:41:54.253Z,35.70
2019-05-20T10:44:25.148Z,36.83
2019-05-20T10:46:54.077Z,37.63
2019-05-20T10:49:23.022Z,36.50
2019-05-20T10:51:51.940Z,39.37
2019-05-20T10:54:20.849Z,43.50
2019-05-20T10:56:49.990Z,40.07
2019-05-20T10:59:20.070Z,41.30
2019-05-20T11:01:50.516Z,40.37
2019-05-20T11:04:19.704Z,41.93
2019-05-20T11:06:48.665Z,41.93
2019-05-20T11:09:17.611Z,26.53
2019-05-20T11:11:46.667Z,21.70
2019-05-20T11:14:15.808Z,21.53
2019-05-20T11:16:44.769Z,24.10
2019-05-20T11:19:13.708Z,21.13
2019-05-20T11:21:42.787Z,16.17
2019-05-20T11:24:11.875Z,15.00
2019-05-20T11:26:40.957Z,12.17
2019-05-20T11:29:10.077Z,9.63
2019-05-20T11:31:38.991Z,10.73
2019-05-20T11:34:08.006Z,11.70
2019-05-20T11:36:37.115Z,9.13
2019-05-20T11:39:07.525Z,6.97
2019-05-20T11:41:54.005Z,7.33
2019-05-20T11:44:07.214Z,6.93
2019-05-20T11:46:36.223Z,6.80
2019-05-20T11:49:09.994Z,3.53
2019-05-20T11:51:38.926Z,3.83
2019-05-20T11:54:11.181Z,3.07
2019-05-20T11:56:41.201Z,2.60
2019-05-20T11:59:11.209Z,1.53
2019-05-20T12:01:40.171Z,4.43
2019-05-20T12:04:09.297Z,4.00
2019-05-20T12:06:38.252Z,4.23
2019-05-20T12:09:07.738Z,3.93
2019-05-20T12:11:38.975Z,0.80
2019-05-20T12:14:07.898Z,3.33
2019-05-20T12:16:36.779Z,2.20
2019-05-20T12:19:07.950Z,1.07
2019-05-20T12:21:39.806Z,2.83
2019-05-20T12:24:08.729Z,4.87
2019-05-20T12:26:37.678Z,2.30
2019-05-20T12:29:06.533Z,1.30
2019-05-20T12:31:35.547Z,2.77
2019-05-20T12:34:04.573Z,5.07
2019-05-20T12:36:36.263Z,3.83
2019-05-20T12:39:06.175Z,2.53
2019-05-20T12:41:36.385Z,1.33
2019-05-20T12:44:12.203Z,3.10
2019-05-20T12:46:36.288Z,2.10
2019-05-20T12:49:05.297Z,2.37
2019-05-20T12:51:34.442Z,1.70
2019-05-20T12:54:03.466Z,2.50
2019-05-20T12:56:32.474Z,4.30
2019-05-20T12:59:01.632Z,1.63
2019-05-20T13:01:30.486Z,3.30
2019-05-20T13:03:59.496Z,3.40
2019-05-20T13:06:34.848Z,2.03
2019-05-20T13:09:05.425Z,2.30
2019-05-20T13:11:34.484Z,3.00
2019-05-20T13:14:03.628Z,4.17
2019-05-20T13:16:35.922Z,2.30
2019-05-20T13:19:05.026Z,2.00
2019-05-20T13:21:37.049Z,4.13
2019-05-20T13:24:07.734Z,4.50
2019-05-20T13:26:36.574Z,1.80
2019-05-20T13:29:05.569Z,6.23
2019-05-20T13:31:34.523Z,4.03
2019-05-20T13:34:03.479Z,4.77
2019-05-20T13:36:38.359Z,4.53
2019-05-20T13:39:07.847Z,2.33
2019-05-20T13:41:37.402Z,2.77
2019-05-20T13:44:07.468Z,4.97
2019-05-20T13:46:39.804Z,2.07
2019-05-20T13:49:08.690Z,3.53
2019-05-20T13:51:38.679Z,2.30
2019-05-20T13:54:11.893Z,2.47
2019-05-20T13:56:41.066Z,3.80
2019-05-20T13:59:10.020Z,2.30
2019-05-20T14:01:39.147Z,3.00
2019-05-20T14:04:08.230Z,2.03
2019-05-20T14:06:37.355Z,2.73
2019-05-20T14:09:07.569Z,2.20
2019-05-20T14:11:37.008Z,2.97
2019-05-20T14:14:05.937Z,5.33
2019-05-20T14:16:35.064Z,2.20
2019-05-20T14:19:04.214Z,1.83
2019-05-20T14:21:35.686Z,4.17
2019-05-20T14:24:04.661Z,2.10
2019-05-20T14:26:33.687Z,3.07
2019-05-20T14:29:02.707Z,2.33
2019-05-20T14:31:31.745Z,1.97
2019-05-20T14:34:00.669Z,1.87
2019-05-20T14:36:39.584Z,1.87
2019-05-20T14:39:00.224Z,2.53
2019-05-20T14:41:32.550Z,3.27
2019-05-20T14:44:01.666Z,2.30
2019-05-20T14:46:31.844Z,2.33
2019-05-20T14:49:02.593Z,3.07
2019-05-20T14:51:31.428Z,7.00
2019-05-20T14:54:00.427Z,3.30
2019-05-20T14:56:29.372Z,2.90
2019-05-20T14:58:58.423Z,2.67
2019-05-20T15:01:27.461Z,1.87
2019-05-20T15:03:58.455Z,2.43
2019-05-20T15:06:28.069Z,2.73
2019-05-20T15:08:57.506Z,1.73
2019-05-20T15:11:37.769Z,2.43
2019-05-20T15:14:00.431Z,2.27
2019-05-20T15:16:30.375Z,3.93
2019-05-20T15:18:59.354Z,2.53
2019-05-20T15:21:31.925Z,4.77
2019-05-20T15:24:01.225Z,2.30
2019-05-20T15:26:30.777Z,4.00
2019-05-20T15:28:59.981Z,3.00
2019-05-20T15:31:29.078Z,2.37
2019-05-20T15:33:58.280Z,2.50
2019-05-20T15:36:27.803Z,2.50
2019-05-20T15:38:56.859Z,2.03
2019-05-20T15:41:27.285Z,2.60
2019-05-20T15:43:56.218Z,3.00
2019-05-20T15:46:27.381Z,4.03
2019-05-20T15:48:58.587Z,3.47
2019-05-20T15:51:27.519Z,3.97
2019-05-20T15:53:56.466Z,3.00
2019-05-20T15:56:25.378Z,2.00
2019-05-20T15:58:55.504Z,2.80
2019-05-20T16:01:24.656Z,3.20
2019-05-20T16:03:53.570Z,3.07
2019-05-20T16:06:22.539Z,2.67
2019-05-20T16:08:51.514Z,2.93
2019-05-20T16:12:08.355Z,8.13
2019-05-20T16:14:37.454Z,4.47
2019-05-20T16:17:06.453Z,3.90
2019-05-20T16:19:35.508Z,2.97
2019-05-20T16:22:04.487Z,3.23
2019-05-20T16:24:33.416Z,2.67
2019-05-20T16:27:02.359Z,4.60
2019-05-20T16:29:31.352Z,3.73
2019-05-20T16:32:00.519Z,6.47
2019-05-20T16:34:29.456Z,4.47
2019-05-20T16:36:58.413Z,2.70
2019-05-20T16:39:30.795Z,2.40
2019-05-20T16:41:58.048Z,2.53
2019-05-20T16:44:26.999Z,7.73
2019-05-20T16:46:55.918Z,3.83
2019-05-20T16:49:24.958Z,2.40
2019-05-20T16:51:56.431Z,4.87
2019-05-20T16:54:25.761Z,3.30
2019-05-20T16:56:54.909Z,2.60
2019-05-20T16:59:24.877Z,8.70
2019-05-20T17:01:53.966Z,4.17
2019-05-20T17:04:25.364Z,2.57
2019-05-20T17:06:54.429Z,3.50
2019-05-20T17:09:23.368Z,3.87
2019-05-20T17:11:52.499Z,4.60
2019-05-20T17:14:22.141Z,3.97
2019-05-20T17:16:51.044Z,5.97
2019-05-20T17:19:20.004Z,4.87
2019-05-20T17:21:48.952Z,6.37
2019-05-20T17:24:17.947Z,7.77
2019-05-20T17:26:46.977Z,6.80
2019-05-20T17:29:16.041Z,4.17
2019-05-20T17:31:46.092Z,7.60
2019-05-20T17:34:15.181Z,5.37
2019-05-20T17:36:44.164Z,6.77
2019-05-20T17:39:13.140Z,7.03
2019-05-20T17:41:42.212Z,5.93
2019-05-20T17:44:18.406Z,6.90
2019-05-20T17:46:47.296Z,7.90
2019-05-20T17:49:16.242Z,9.03
2019-05-20T17:51:45.111Z,6.33
2019-05-20T17:54:15.111Z,6.10
2019-05-20T17:56:44.134Z,6.10
2019-05-20T17:59:13.231Z,6.27
2019-05-20T18:01:42.293Z,4.83
2019-05-20T18:04:13.310Z,4.63
2019-05-20T18:06:48.944Z,2.80
2019-05-20T18:09:19.518Z,3.90
2019-05-20T18:11:48.801Z,4.07
2019-05-20T18:14:18.185Z,2.97
2019-05-20T18:16:49.594Z,3.60
2019-05-20T18:19:24.413Z,3.27
2019-05-20T18:21:58.997Z,6.80
2019-05-20T18:24:30.618Z,4.07
2019-05-20T18:27:02.811Z,4.37
2019-05-20T18:29:31.862Z,4.47
2019-05-20T18:32:04.291Z,5.73
2019-05-20T18:34:33.287Z,4.60
2019-05-20T18:37:02.693Z,6.23
2019-05-20T18:39:31.989Z,4.77
2019-05-20T18:42:01.209Z,4.80
2019-05-20T18:44:30.097Z,4.43
2019-05-20T18:46:59.121Z,4.63
2019-05-20T18:49:31.697Z,4.30
2019-05-20T18:52:00.683Z,7.27
2019-05-20T18:54:35.950Z,4.87
2019-05-20T18:57:06.041Z,7.70
2019-05-20T18:59:38.955Z,8.07
2019-05-20T19:02:08.168Z,9.27
2019-05-20T19:04:39.619Z,6.63
2019-05-20T19:07:08.728Z,5.47
2019-05-20T19:09:39.541Z,8.03
2019-05-20T19:12:08.970Z,8.30
2019-05-20T19:14:41.841Z,6.27
2019-05-20T19:17:13.412Z,6.50
2019-05-20T19:19:42.888Z,6.20
2019-05-20T19:22:13.207Z,7.43
2019-05-20T19:24:42.253Z,7.37
2019-05-20T19:27:12.754Z,7.70
2019-05-20T19:29:42.603Z,9.23
2019-05-20T19:32:11.806Z,14.07
2019-05-20T19:34:40.843Z,8.47
2019-05-20T19:37:14.546Z,11.03
2019-05-20T19:39:47.275Z,9.27
2019-05-20T19:42:17.529Z,15.03
2019-05-20T19:44:49.762Z,8.53
2019-05-20T19:47:18.910Z,8.10
2019-05-20T19:49:49.754Z,9.50
2019-05-20T19:52:24.317Z,11.27
2019-05-20T19:54:59.773Z,9.53
2019-05-20T19:57:34.300Z,10.77
2019-05-20T20:00:05.125Z,11.37
2019-05-20T20:02:34.159Z,10.03
2019-05-20T20:05:03.279Z,11.03
2019-05-20T20:07:32.379Z,11.13
2019-05-20T20:10:01.521Z,10.70
2019-05-20T20:12:32.130Z,10.77
2019-05-20T20:15:03.231Z,9.17
2019-05-20T20:17:32.265Z,12.43
2019-05-20T20:20:06.580Z,12.50
2019-05-20T20:22:35.451Z,10.57
2019-05-20T20:25:05.954Z,12.57
2019-05-20T20:27:37.416Z,10.60
2019-05-20T20:30:06.511Z,11.30
2019-05-20T20:32:38.265Z,13.03
2019-05-20T20:35:07.345Z,10.83
2019-05-20T20:37:36.651Z,10.37
2019-05-20T20:40:05.950Z,10.27
2019-05-20T20:42:35.123Z,12.40
2019-05-20T20:45:04.562Z,12.77
2019-05-20T20:47:41.186Z,11.80
2019-05-20T20:50:04.252Z,10.93
2019-05-20T20:52:37.302Z,9.57
2019-05-20T20:55:06.476Z,9.77
2019-05-20T20:57:35.585Z,9.13
2019-05-20T21:00:07.492Z,9.13
2019-05-20T21:02:51.904Z,8.60
2019-05-20T21:05:08.037Z,9.77
2019-05-20T21:07:37.141Z,10.27
2019-05-20T21:10:06.538Z,8.30
2019-05-20T21:12:35.820Z,9.00
2019-05-20T21:15:04.974Z,8.37
2019-05-20T21:17:36.005Z,8.53
2019-05-20T21:20:05.161Z,7.90
2019-05-20T21:22:34.153Z,8.23
2019-05-20T21:25:03.441Z,8.43
2019-05-20T21:27:34.691Z,9.17
2019-05-20T21:30:03.609Z,8.07
2019-05-20T21:32:32.711Z,8.43
2019-05-20T21:35:01.758Z,9.23
2019-05-20T21:37:30.721Z,7.97
2019-05-20T21:39:59.725Z,7.80
2019-05-20T21:42:28.824Z,8.43
2019-05-20T21:44:57.963Z,9.87
2019-05-20T21:47:27.020Z,8.97
2019-05-20T21:49:55.923Z,10.13
2019-05-20T21:52:24.922Z,9.97
2019-05-20T21:54:57.522Z,9.60
2019-05-20T21:57:26.741Z,12.50
2019-05-20T22:00:00.694Z,11.23
2019-05-20T22:02:29.608Z,8.77
2019-05-20T22:04:59.670Z,9.77
2019-05-20T22:07:31.170Z,9.60
2019-05-20T22:10:03.944Z,10.63
2019-05-20T22:12:33.054Z,7.27
2019-05-20T22:15:02.269Z,10.40
2019-05-20T22:17:31.291Z,9.60
2019-05-20T22:20:00.218Z,8.57
2019-05-20T22:22:54.929Z,9.33
2019-05-20T22:25:26.649Z,8.10
2019-05-20T22:27:55.554Z,7.70
2019-05-20T22:30:24.558Z,9.87
2019-05-20T22:32:53.607Z,9.00
2019-05-20T22:35:22.543Z,12.27
2019-05-20T22:37:51.552Z,9.63
2019-05-20T22:40:20.701Z,12.67
2019-05-20T22:42:49.653Z,11.37
2019-05-20T22:45:18.714Z,11.07
2019-05-20T22:47:47.681Z,9.27
2019-05-20T22:50:16.762Z,9.57
2019-05-20T22:52:45.729Z,9.90
2019-05-20T22:55:15.971Z,12.00
2019-05-20T22:57:44.810Z,9.77
2019-05-20T23:00:13.894Z,10.73
2019-05-20T23:02:45.708Z,12.23
2019-05-20T23:05:14.637Z,9.53
2019-05-20T23:07:44.769Z,11.97
2019-05-20T23:10:14.074Z,13.67
2019-05-20T23:12:44.414Z,13.93
2019-05-20T23:15:13.556Z,17.20
2019-05-20T23:17:42.560Z,17.40
2019-05-20T23:20:11.605Z,13.53
2019-05-20T23:22:43.311Z,12.53
2019-05-20T23:25:12.804Z,12.97
2019-05-20T23:27:41.853Z,9.87
2019-05-20T23:30:11.373Z,10.03
2019-05-20T23:32:40.310Z,11.50
2019-05-20T23:35:09.258Z,10.60
2019-05-20T23:37:38.571Z,8.93
2019-05-20T23:40:08.022Z,8.13
2019-05-20T23:42:37.058Z,11.03
2019-05-20T23:45:06.179Z,10.13
2019-05-20T23:47:35.097Z,9.50
2019-05-20T23:50:05.558Z,9.70
2019-05-20T23:52:34.563Z,10.33
2019-05-20T23:55:06.112Z,12.93
2019-05-20T23:57:35.163Z,13.37
